Terminal Aerodrome Forecast
Issued by NWS

Home | Current Version | Previous Version | Text Only | Print | Product List | Glossary On
Versions: 1 2 3 4 5 6 7 8 9 10 11 12
801
FTUS44 KTSA 120524
TAFRVS
TAF
KRVS 120524Z 1206/1306 00000KT P6SM SCT250
     FM121200 33002KT P6SM BKN200
     FM121500 34009G16KT P6SM SCT120 BKN200
     FM121800 01010G17KT P6SM FEW020 SCT120 BKN200
     FM122300 02010KT P6SM BKN200=

USA.gov is the U.S. government's official web portal to all federal, state and local government web resources and services.